Time;durP1;ratioP1;P1;durP2;ratioP2;P2;SDS_P1;SDS_P2;PMS_P1;PMS_P2;Temp;Humidity;BMP_temperature;BMP_pressure;BME280_temperature;BME280_humidity;BME280_pressure;Samples;Min_cycle;Max_cycle;Signal;HPM_P1;HPM_P2
2021/03/28 00:01:05;;;;;;;11.63;10.83;;;7.70;16.00;;;;;;5033553;28;20447;-75
2021/03/28 00:03:55;;;;;;;9.30;8.90;;;7.60;16.40;;;;;;5033254;28;20411;-74
2021/03/28 00:06:46;;;;;;;9.20;8.70;;;7.40;16.80;;;;;;5033731;28;20204;-75
2021/03/28 00:09:19;;;;;;;9.73;9.17;;;7.40;17.50;;;;;;5032714;28;20460;-75
2021/03/28 00:12:06;;;;;;;9.17;8.63;;;7.30;17.40;;;;;;5033281;28;20445;-75
2021/03/28 00:14:53;;;;;;;9.27;8.77;;;7.30;17.40;;;;;;5033048;28;20985;-76
2021/03/28 00:17:18;;;;;;;10.43;9.60;;;7.20;17.30;;;;;;5033045;28;20859;-75
2021/03/28 00:19:54;;;;;;;10.90;9.97;;;7.20;17.30;;;;;;5032679;28;20178;-76
2021/03/28 00:22:31;;;;;;;8.87;8.47;;;7.20;17.80;;;;;;5032928;28;20205;-74
2021/03/28 00:25:07;;;;;;;8.27;7.87;;;7.20;17.90;;;;;;5031699;28;20502;-74
2021/03/28 00:27:52;;;;;;;9.23;8.47;;;7.10;18.00;;;;;;5031804;28;20793;-75
2021/03/28 00:30:29;;;;;;;9.10;8.35;;;7.10;18.30;;;;;;5032187;28;20460;-75
2021/03/28 00:32:55;;;;;;;8.60;8.07;;;;;;;;;;5030262;28;20205;-76
2021/03/28 00:35:27;;;;;;;8.87;8.27;;;6.90;34.70;;;;;;5032929;28;20466;-75
2021/03/28 00:38:24;;;;;;;10.10;9.13;;;6.80;34.40;;;;;;5032877;28;20432;-74
2021/03/28 00:41:12;;;;;;;8.17;7.57;;;6.70;33.60;;;;;;5031286;28;20429;-75
2021/03/28 00:43:44;;;;;;;8.35;7.90;;;;;;;;;;5031127;28;20458;-75
2021/03/28 00:46:21;;;;;;;8.15;7.60;;;;;;;;;;5030807;28;20196;-76
2021/03/28 00:48:54;;;;;;;6.97;6.43;;;6.50;51.10;;;;;;5031721;28;20172;-75
2021/03/28 00:51:21;;;;;;;7.22;6.70;;;;;;;;;;5030572;28;20201;-75
2021/03/28 00:53:47;;;;;;;7.22;6.55;;;;;;;;;;5032312;28;20193;-75
2021/03/28 00:56:24;;;;;;;7.10;6.60;;;6.30;23.40;;;;;;5032515;28;20184;-75
2021/03/28 00:59:14;;;;;;;13.27;6.75;;;6.00;20.80;;;;;;5032450;28;20410;-76
2021/03/28 01:02:04;;;;;;;6.25;5.85;;;5.90;21.00;;;;;;5032616;28;20347;-75
2021/03/28 01:04:51;;;;;;;11.48;5.30;;;5.80;21.10;;;;;;5032568;28;20231;-75
2021/03/28 01:07:36;;;;;;;5.80;5.40;;;5.70;21.60;;;;;;5031332;28;20640;-76
2021/03/28 01:10:33;;;;;;;7.68;5.30;;;5.60;21.80;;;;;;5032089;28;20183;-75
2021/03/28 01:13:56;;;;;;;7.00;4.80;;;5.60;22.00;;;;;;5031035;28;20323;-75
2021/03/28 01:16:49;;;;;;;5.00;4.65;;;5.40;24.00;;;;;;4955214;28;20182;-75
2021/03/28 01:19:33;;;;;;;4.60;4.30;;;;;;;;;;5031841;28;20225;-74
2021/03/28 01:21:59;;;;;;;5.43;4.82;;;;;;;;;;5031009;28;20201;-75
2021/03/28 01:24:28;;;;;;;5.13;4.77;;;;;;;;;;5032100;28;20258;-74
2021/03/28 01:27:13;;;;;;;4.78;4.00;;;;;;;;;;5032189;28;20406;-75
2021/03/28 01:29:50;;;;;;;4.60;4.30;;;;;;;;;;5030524;28;20178;-75
2021/03/28 01:32:29;;;;;;;26.08;4.72;;;;;;;;;;5032052;28;20657;-75
2021/03/28 01:35:05;;;;;;;3.70;3.50;;;5.20;22.60;;;;;;5032130;28;20214;-75
2021/03/28 01:37:32;;;;;;;4.45;4.05;;;5.20;23.00;;;;;;5031780;28;20206;-75
2021/03/28 01:40:10;;;;;;;5.13;3.90;;;5.10;23.30;;;;;;5031375;28;20174;-75
2021/03/28 01:43:18;;;;;;;5.88;4.53;;;4.90;23.40;;;;;;5030328;28;20729;-75
2021/03/28 01:46:01;;;;;;;4.10;3.33;;;4.80;24.20;;;;;;5032030;28;20258;-75
2021/03/28 01:48:27;;;;;;;5.20;3.90;;;;;;;;;;5030629;28;20558;-74
2021/03/28 01:51:19;;;;;;;6.57;2.87;;;4.70;23.80;;;;;;5030208;28;20187;-75
2021/03/28 01:54:16;;;;;;;5.63;3.03;;;4.60;24.90;;;;;;5031099;28;20495;-75
2021/03/28 01:56:51;;;;;;;3.60;3.20;;;4.50;25.60;;;;;;5031327;28;20193;-74
2021/03/28 01:59:32;;;;;;;3.72;2.97;;;4.40;25.40;;;;;;5030806;28;20178;-75
2021/03/28 02:02:40;;;;;;;2.92;2.63;;;4.30;25.60;;;;;;5031074;28;20214;-74
2021/03/28 02:05:05;;;;;;;4.03;2.95;;;4.20;25.90;;;;;;5029949;28;20608;-74
2021/03/28 02:07:49;;;;;;;6.80;2.63;;;4.20;26.00;;;;;;5029612;28;20183;-74
2021/03/28 02:10:47;;;;;;;9.18;2.78;;;4.20;26.00;;;;;;5030572;28;20233;-74
2021/03/28 02:13:20;;;;;;;3.28;2.05;;;4.10;26.50;;;;;;5029444;28;20302;-74
2021/03/28 02:15:48;;;;;;;3.30;2.60;;;;;;;;;;5029894;28;20209;-74
2021/03/28 02:18:20;;;;;;;9.48;2.58;;;;;;;;;;5031110;28;20203;-75
2021/03/28 02:21:13;;;;;;;4.68;2.20;;;3.90;26.50;;;;;;5030870;28;20183;-74
2021/03/28 02:24:13;;;;;;;3.50;2.33;;;3.80;27.10;;;;;;5031103;28;20637;-74
2021/03/28 02:26:59;;;;;;;6.05;2.85;;;3.80;27.60;;;;;;5031227;28;20175;-74
2021/03/28 02:29:39;;;;;;;4.78;3.03;;;3.70;27.50;;;;;;5030412;28;20183;-75
2021/03/28 02:32:27;;;;;;;9.52;2.58;;;3.60;27.40;;;;;;5030894;28;20260;-74
2021/03/28 02:34:52;;;;;;;5.53;2.83;;;;;;;;;;5031126;28;20642;-74
2021/03/28 02:37:35;;;;;;;3.90;2.87;;;3.50;27.00;;;;;;5031341;28;20370;-74
2021/03/28 02:40:24;;;;;;;5.38;2.65;;;3.50;27.40;;;;;;5030457;28;20413;-74
2021/03/28 02:43:05;;;;;;;2.67;1.92;;;3.60;27.50;;;;;;5030152;28;20199;-74
2021/03/28 02:45:36;;;;;;;3.05;2.40;;;3.60;27.50;;;;;;5029559;28;20186;-75
2021/03/28 02:48:30;;;;;;;2.88;2.25;;;3.60;27.30;;;;;;5030215;28;20217;-74
2021/03/28 02:51:07;;;;;;;4.55;2.95;;;3.60;27.10;;;;;;5029298;28;20270;-74
2021/03/28 02:54:16;;;;;;;2.75;2.53;;;3.60;27.30;;;;;;5030705;28;20207;-75
2021/03/28 02:57:00;;;;;;;3.78;2.75;;;3.60;27.50;;;;;;4957044;28;20184;-74
2021/03/28 02:59:31;;;;;;;6.40;2.28;;;3.70;27.30;;;;;;5032544;28;20190;-74
2021/03/28 03:02:34;;;;;;;2.95;2.33;;;3.80;26.80;;;;;;5033385;28;20510;-74
2021/03/28 03:05:06;;;;;;;7.07;2.92;;;3.70;27.00;;;;;;5033058;28;20231;-74
2021/03/28 03:08:08;;;;;;;3.60;2.45;;;3.70;27.10;;;;;;5034261;28;20182;-74
2021/03/28 03:10:57;;;;;;;3.30;3.00;;;3.70;27.10;;;;;;5002089;28;20218;-75
2021/03/28 03:13:41;;;;;;;2.35;2.15;;;3.60;27.30;;;;;;5033824;28;20197;-75
2021/03/28 03:16:42;;;;;;;4.40;2.75;;;3.60;27.50;;;;;;5034395;28;20175;-74
2021/03/28 03:19:16;;;;;;;2.13;1.83;;;3.60;27.50;;;;;;5033975;28;20358;-74
2021/03/28 03:22:20;;;;;;;5.85;2.25;;;3.50;27.40;;;;;;5033211;28;20198;-75
2021/03/28 03:25:23;;;;;;;1.65;1.55;;;3.50;27.40;;;;;;5033968;28;20179;-74
2021/03/28 03:28:22;;;;;;;4.85;2.30;;;3.40;27.30;;;;;;5033891;28;20210;-75
2021/03/28 03:30:57;;;;;;;4.88;2.28;;;3.40;27.40;;;;;;5031748;28;20218;-74
2021/03/28 03:33:44;;;;;;;7.38;2.78;;;3.30;27.70;;;;;;5033761;28;20560;-74
2021/03/28 03:36:25;;;;;;;2.58;1.98;;;3.20;28.10;;;;;;5033837;28;20171;-74
2021/03/28 03:38:56;;;;;;;3.58;2.42;;;3.20;28.30;;;;;;5033179;28;20546;-75
2021/03/28 03:41:25;;;;;;;3.53;2.25;;;3.20;28.40;;;;;;5033651;28;20197;-74
2021/03/28 03:44:09;;;;;;;2.03;1.73;;;3.10;28.80;;;;;;5033825;28;20603;-74
2021/03/28 03:47:00;;;;;;;4.10;2.47;;;3.10;29.10;;;;;;5032320;28;20186;-74
2021/03/28 03:49:49;;;;;;;4.75;2.72;;;;;;;;;;5032934;28;20221;-75
2021/03/28 03:52:46;;;;;;;6.95;2.63;;;3.00;28.80;;;;;;5033164;28;20265;-74
2021/03/28 03:55:23;;;;;;;11.02;2.33;;;2.90;29.50;;;;;;5033051;28;20500;-74
2021/03/28 03:57:59;;;;;;;5.43;2.30;;;2.90;29.70;;;;;;5031925;28;20607;-75
2021/03/28 04:00:29;;;;;;;2.95;1.83;;;2.90;29.60;;;;;;5031266;28;20197;-74
2021/03/28 04:03:16;;;;;;;5.00;2.88;;;;;;;;;;5031724;28;20457;-74
2021/03/28 04:05:54;;;;;;;6.50;2.65;;;2.80;29.30;;;;;;5032911;28;20210;-73
2021/03/28 04:08:29;;;;;;;7.30;2.25;;;;;;;;;;5032113;28;20170;-74
2021/03/28 04:11:09;;;;;;;4.20;2.33;;;;;;;;;;5032603;28;20175;-75
2021/03/28 04:13:59;;;;;;;3.63;2.05;;;2.60;29.70;;;;;;5031762;28;20672;-74
2021/03/28 04:16:54;;;;;;;4.22;2.63;;;2.50;30.50;;;;;;5032890;28;20273;-76
2021/03/28 04:19:26;;;;;;;3.10;1.95;;;2.40;30.80;;;;;;5031295;28;20178;-74
2021/03/28 04:22:10;;;;;;;3.13;2.38;;;2.40;30.90;;;;;;5033015;28;20192;-76
2021/03/28 04:25:04;;;;;;;5.55;2.40;;;2.30;30.90;;;;;;5033069;28;20185;-75
2021/03/28 04:28:21;;;;;;;2.75;2.50;;;2.20;31.00;;;;;;5033192;28;20224;-74
2021/03/28 04:30:55;;;;;;;5.13;2.50;;;2.20;31.50;;;;;;5018660;28;20202;-74
2021/03/28 04:33:49;;;;;;;3.45;2.35;;;2.20;31.90;;;;;;5031532;28;20183;-75
2021/03/28 04:36:53;;;;;;;3.35;1.67;;;2.20;31.80;;;;;;5019150;28;20193;-75
2021/03/28 04:39:37;;;;;;;2.42;1.90;;;2.20;31.80;;;;;;4987492;28;20189;-75
2021/03/28 04:42:21;;;;;;;3.72;2.30;;;2.20;31.80;;;;;;5032043;28;20197;-74
2021/03/28 04:45:17;;;;;;;2.70;1.75;;;2.20;31.90;;;;;;5032219;28;20177;-75
2021/03/28 04:48:27;;;;;;;4.35;2.30;;;2.20;31.90;;;;;;5032162;28;20252;-74
2021/03/28 04:51:34;;;;;;;6.00;2.63;;;2.10;32.30;;;;;;5031669;28;20193;-74
2021/03/28 04:54:41;;;;;;;2.28;1.77;;;2.10;32.40;;;;;;5030693;28;20658;-74
2021/03/28 04:57:21;;;;;;;3.35;2.05;;;2.10;32.20;;;;;;5002065;28;20196;-74
2021/03/28 05:00:08;;;;;;;3.65;2.22;;;2.10;32.20;;;;;;5031576;28;20183;-75
2021/03/28 05:03:11;;;;;;;6.13;2.30;;;2.10;32.30;;;;;;5031845;28;20193;-75
2021/03/28 05:05:58;;;;;;;3.65;1.88;;;2.00;32.50;;;;;;5030662;28;20185;-75
2021/03/28 05:08:33;;;;;;;3.10;2.08;;;;;;;;;;5030204;28;20184;-74
2021/03/28 05:11:18;;;;;;;5.50;3.25;;;;;;;;;;5029851;28;20201;-75
2021/03/28 05:14:30;;;;;;;3.92;2.33;;;2.10;32.10;;;;;;5073499;23;20696;-71
2021/03/28 05:17:02;;;;;;;5.57;2.30;;;2.10;32.60;;;;;;5070066;28;20295;-73
2021/03/28 05:19:33;;;;;;;5.45;2.50;;;2.10;32.90;;;;;;5069383;28;20616;-71
2021/03/28 05:22:45;;;;;;;5.85;2.10;;;2.10;32.60;;;;;;5071551;28;20173;-72
2021/03/28 05:25:49;;;;;;;2.53;1.85;;;2.20;32.40;;;;;;5071518;28;20306;-74
2021/03/28 05:28:33;;;;;;;3.30;1.90;;;2.10;32.50;;;;;;5071656;28;20179;-73
2021/03/28 05:31:04;;;;;;;5.53;2.05;;;2.00;32.80;;;;;;5071470;28;20204;-74
2021/03/28 05:34:07;;;;;;;2.70;2.45;;;2.00;33.20;;;;;;5070152;28;20223;-73
2021/03/28 05:36:53;;;;;;;7.60;2.25;;;;;;;;;;5071500;28;20164;-71
2021/03/28 05:39:28;;;;;;;5.10;2.65;;;2.00;33.30;;;;;;5039889;28;20649;-74
2021/03/28 05:42:13;;;;;;;4.78;2.88;;;2.20;33.20;;;;;;5070099;28;20184;-74
2021/03/28 05:45:16;;;;;;;5.03;2.08;;;2.30;32.60;;;;;;5071261;28;20663;-72
2021/03/28 05:48:16;;;;;;;3.85;2.80;;;2.50;31.70;;;;;;5070030;28;20196;-73
2021/03/28 05:51:26;;;;;;;5.15;2.25;;;2.60;31.00;;;;;;5051895;28;20189;-74
2021/03/28 05:54:11;;;;;;;2.47;2.20;;;2.70;30.70;;;;;;5070942;28;20220;-73
2021/03/28 05:57:19;;;;;;;4.70;1.90;;;2.90;30.40;;;;;;5069890;28;20200;-74
2021/03/28 06:00:00;;;;;;;3.22;2.42;;;3.20;30.10;;;;;;5070499;28;20181;-73
2021/03/28 06:02:44;;;;;;;3.67;2.83;;;;;;;;;;5071207;28;20228;-74
2021/03/28 06:05:28;;;;;;;2.60;2.25;;;3.80;27.70;;;;;;5070323;28;20182;-74
2021/03/28 06:08:05;;;;;;;7.63;3.22;;;4.10;27.80;;;;;;5079586;28;20259;-74
2021/03/28 06:10:39;;;;;;;3.88;2.60;;;4.60;26.50;;;;;;5077895;28;20276;-72
2021/03/28 06:13:41;;;;;;;4.95;3.47;;;5.00;24.50;;;;;;5071390;28;20210;-73
2021/03/28 06:16:38;;;;;;;4.00;3.30;;;5.20;24.40;;;;;;5070396;28;20215;-74
2021/03/28 06:19:25;;;;;;;4.85;3.80;;;5.60;23.20;;;;;;5069444;28;20533;-74
2021/03/28 06:22:02;;;;;;;3.40;3.10;;;5.90;22.30;;;;;;5070006;28;20174;-74
2021/03/28 06:24:42;;;;;;;3.72;3.33;;;6.20;21.60;;;;;;5074135;28;20187;-73
2021/03/28 06:27:48;;;;;;;3.63;3.33;;;6.60;20.70;;;;;;5073353;28;20200;-75
2021/03/28 06:30:33;;;;;;;4.97;4.57;;;;;;;;;;5076949;28;20175;-74
2021/03/28 06:33:36;;;;;;;6.03;5.63;;;7.00;19.00;;;;;;5074326;28;20201;-74
2021/03/28 06:36:39;;;;;;;6.80;6.20;;;7.60;19.50;;;;;;5075051;28;20431;-74
2021/03/28 06:39:23;;;;;;;6.40;6.00;;;9.40;16.00;;;;;;5074534;28;20880;-75
2021/03/28 06:41:58;;;;;;;6.93;6.40;;;;;;;;;;5075334;28;20772;-74
2021/03/28 06:44:42;;;;;;;6.97;6.30;;;10.60;14.00;;;;;;5070494;28;20461;-75
2021/03/28 06:47:26;;;;;;;8.93;8.20;;;11.80;12.30;;;;;;5074012;28;20421;-75
2021/03/28 06:50:10;;;;;;;9.10;8.37;;;12.20;11.20;;;;;;5073684;28;20780;-72
2021/03/28 06:53:04;;;;;;;8.70;8.20;;;12.50;11.30;;;;;;5052956;28;20425;-74
2021/03/28 06:55:35;;;;;;;11.77;9.60;;;12.70;10.00;;;;;;5055277;28;20497;-75
2021/03/28 06:58:26;;;;;;;9.03;8.60;;;13.00;10.70;;;;;;5054774;28;20806;-73
2021/03/28 07:01:11;;;;;;;9.97;9.37;;;13.60;8.70;;;;;;5072263;28;20420;-75
2021/03/28 07:04:14;;;;;;;9.93;9.43;;;14.00;8.00;;;;;;5073491;28;20468;-73
2021/03/28 07:07:01;;;;;;;10.73;9.73;;;14.20;7.60;;;;;;5074742;28;20416;-75
2021/03/28 07:09:53;;;;;;;10.57;9.97;;;14.40;8.30;;;;;;5074375;28;20479;-75
2021/03/28 07:12:49;;;;;;;11.77;11.03;;;14.20;7.70;;;;;;5074293;28;20452;-75
2021/03/28 07:15:21;;;;;;;11.93;10.93;;;13.40;7.50;;;;;;5064423;28;20825;-75
2021/03/28 07:18:24;;;;;;;10.70;10.10;;;12.40;8.90;;;;;;5061804;28;20821;-74
2021/03/28 07:21:18;;;;;;;11.00;10.40;;;11.60;10.60;;;;;;5086821;28;20422;-73
2021/03/28 07:23:44;;;;;;;10.43;9.73;;;11.00;11.40;;;;;;5058124;28;20549;-74
2021/03/28 07:26:39;;;;;;;11.10;10.27;;;10.50;12.20;;;;;;5058785;28;20414;-73
2021/03/28 07:29:50;;;;;;;9.10;8.70;;;10.10;13.70;;;;;;5076374;28;20538;-73
2021/03/28 07:32:43;;;;;;;9.87;9.17;;;9.90;14.70;;;;;;5078985;28;20436;-72
2021/03/28 07:35:33;;;;;;;9.80;9.20;;;9.70;15.60;;;;;;5079917;28;20459;-72
2021/03/28 07:38:22;;;;;;;10.97;9.83;;;9.70;15.40;;;;;;5078057;28;20909;-73
2021/03/28 07:41:09;;;;;;;8.47;8.07;;;9.70;15.50;;;;;;5075852;28;20424;-74
2021/03/28 07:43:59;;;;;;;29.67;8.20;;;9.70;15.80;;;;;;5076512;28;20551;-71
2021/03/28 07:47:01;;;;;;;8.63;7.93;;;9.80;16.00;;;;;;5077838;28;20408;-72
2021/03/28 07:49:36;;;;;;;8.47;8.00;;;9.90;15.90;;;;;;5077455;28;20408;-72
2021/03/28 07:52:23;;;;;;;8.70;8.23;;;10.20;15.00;;;;;;5078368;28;20413;-74
2021/03/28 07:55:07;;;;;;;9.63;8.97;;;10.30;14.30;;;;;;5075653;28;20507;-72
2021/03/28 07:58:09;;;;;;;10.80;9.63;;;10.40;14.30;;;;;;5077275;28;20443;-73
2021/03/28 08:01:05;;;;;;;8.73;8.33;;;10.60;14.50;;;;;;5079331;28;20412;-74
2021/03/28 08:04:28;;;;;;;10.40;9.73;;;10.80;14.40;;;;;;5079289;28;20448;-74
2021/03/28 08:07:18;;;;;;;10.20;9.60;;;10.70;14.00;;;;;;5027953;28;20991;-69
2021/03/28 08:10:05;;;;;;;10.63;9.73;;;10.70;14.00;;;;;;5020295;28;20423;-72
2021/03/28 08:12:49;;;;;;;9.10;8.40;;;10.50;13.80;;;;;;5068858;28;20542;-73
2021/03/28 08:15:54;;;;;;;11.20;10.33;;;10.30;14.30;;;;;;5066473;28;20502;-74
2021/03/28 08:18:57;;;;;;;15.27;9.17;;;10.40;14.00;;;;;;5073644;28;20431;-70
2021/03/28 08:21:27;;;;;;;24.33;11.03;;;10.70;14.10;;;;;;5072159;28;20420;-71
2021/03/28 08:24:19;;;;;;;10.67;10.00;;;11.10;14.10;;;;;;5073011;28;20847;-73
2021/03/28 08:27:12;;;;;;;10.17;9.60;;;11.50;13.60;;;;;;5075689;28;20428;-76
2021/03/28 08:30:13;;;;;;;10.70;10.00;;;11.90;13.10;;;;;;5077604;28;20408;-73
2021/03/28 08:32:39;;;;;;;11.70;10.80;;;12.10;12.70;;;;;;5077397;28;20440;-73
2021/03/28 08:35:29;;;;;;;10.57;10.07;;;12.00;12.80;;;;;;5077737;28;20452;-74
2021/03/28 08:38:22;;;;;;;13.70;10.63;;;11.80;12.50;;;;;;5075885;28;20177;-74
2021/03/28 08:41:01;;;;;;;10.47;9.90;;;11.50;13.00;;;;;;5075872;28;20412;-72
2021/03/28 08:43:59;;;;;;;13.80;10.33;;;11.30;13.20;;;;;;5077923;28;20842;-71
2021/03/28 08:46:49;;;;;;;11.00;10.30;;;11.10;14.20;;;;;;5077281;28;21016;-72
2021/03/28 08:49:41;;;;;;;9.93;9.30;;;11.00;14.70;;;;;;5076506;28;20405;-72
2021/03/28 08:52:10;;;;;;;9.97;9.27;;;11.00;14.80;;;;;;5076479;28;20417;-72
2021/03/28 08:55:12;;;;;;;9.97;9.30;;;11.00;15.20;;;;;;5077155;28;20455;-73
2021/03/28 08:58:04;;;;;;;8.57;7.93;;;11.00;14.80;;;;;;5077704;28;20746;-73
2021/03/28 09:00:52;;;;;;;8.93;8.43;;;11.00;17.90;;;;;;5076405;28;20433;-72
2021/03/28 09:03:42;;;;;;;9.50;8.90;;;11.00;16.20;;;;;;5077438;28;20425;-73
2021/03/28 09:06:15;;;;;;;9.40;8.70;;;11.10;16.00;;;;;;5077364;28;20802;-73
2021/03/28 09:09:03;;;;;;;8.97;8.37;;;11.20;16.00;;;;;;5075460;28;20972;-71
2021/03/28 09:11:54;;;;;;;11.10;10.10;;;11.10;15.50;;;;;;5076260;28;20419;-73
2021/03/28 09:14:39;;;;;;;9.80;8.90;;;11.10;15.40;;;;;;5075105;28;21005;-73
2021/03/28 09:17:13;;;;;;;9.33;8.83;;;11.10;15.20;;;;;;5077194;28;20416;-71
2021/03/28 09:20:01;;;;;;;10.37;9.37;;;11.20;15.20;;;;;;5076565;28;20419;-72
2021/03/28 09:22:49;;;;;;;10.40;9.60;;;11.30;15.00;;;;;;5076949;28;20433;-73
2021/03/28 09:25:33;;;;;;;9.00;8.40;;;11.40;13.70;;;;;;5076746;28;20432;-71
2021/03/28 09:28:26;;;;;;;9.80;9.30;;;11.50;15.00;;;;;;5075592;28;20484;-72
2021/03/28 09:31:06;;;;;;;11.53;10.43;;;11.70;14.40;;;;;;5076001;28;20457;-73
2021/03/28 09:34:04;;;;;;;8.73;8.13;;;11.80;13.40;;;;;;5076772;28;20430;-72
2021/03/28 09:36:36;;;;;;;10.77;10.00;;;11.80;13.70;;;;;;5075427;28;20413;-74
2021/03/28 09:39:26;;;;;;;10.50;9.80;;;11.90;13.70;;;;;;5075140;28;20469;-72
2021/03/28 09:42:09;;;;;;;10.63;10.13;;;12.00;12.80;;;;;;5075977;28;20468;-72
2021/03/28 09:44:58;;;;;;;10.47;9.97;;;12.10;12.60;;;;;;5077385;28;20483;-73
2021/03/28 09:47:43;;;;;;;11.00;10.40;;;12.20;11.70;;;;;;5077433;28;20464;-73
2021/03/28 09:50:27;;;;;;;11.33;10.27;;;12.20;9.60;;;;;;5075333;28;20513;-73
2021/03/28 09:53:11;;;;;;;11.70;11.10;;;12.20;8.40;;;;;;5077637;28;20519;-73
2021/03/28 09:56:04;;;;;;;10.80;10.33;;;12.20;6.80;;;;;;5078149;28;20459;-73
2021/03/28 09:58:44;;;;;;;10.97;10.43;;;12.30;7.10;;;;;;5077833;28;20462;-71
2021/03/28 10:01:25;;;;;;;10.93;10.53;;;12.20;7.60;;;;;;5078244;28;20411;-73
2021/03/28 10:04:00;;;;;;;11.70;11.20;;;12.30;6.90;;;;;;5079050;28;20474;-72
2021/03/28 10:06:27;;;;;;;11.33;10.73;;;12.20;8.60;;;;;;5091859;28;20412;-71
2021/03/28 10:09:12;;;;;;;12.50;11.80;;;12.40;8.80;;;;;;5077931;28;20412;-71
2021/03/28 10:11:38;;;;;;;10.90;10.40;;;12.60;8.40;;;;;;5077984;28;20420;-72
2021/03/28 10:14:08;;;;;;;11.60;11.00;;;12.80;9.20;;;;;;5076579;28;20505;-73
2021/03/28 10:17:03;;;;;;;12.17;11.27;;;12.90;8.50;;;;;;5076656;28;20235;-73
2021/03/28 10:19:39;;;;;;;12.03;11.20;;;13.00;8.10;;;;;;5076299;28;20945;-73
2021/03/28 10:22:30;;;;;;;11.10;10.60;;;13.10;7.30;;;;;;5077537;28;20865;-73
2021/03/28 10:25:22;;;;;;;12.33;11.63;;;13.20;7.40;;;;;;5076627;28;20427;-71
2021/03/28 10:28:14;;;;;;;12.07;11.47;;;13.20;8.70;;;;;;5078038;28;20476;-71
2021/03/28 10:31:05;;;;;;;12.33;11.67;;;13.40;8.40;;;;;;5077332;28;20412;-71
2021/03/28 10:33:49;;;;;;;12.20;11.47;;;13.50;6.60;;;;;;5075261;28;20481;-72
2021/03/28 10:36:38;;;;;;;11.50;11.00;;;13.40;6.60;;;;;;5070779;28;20415;-72
2021/03/28 10:39:22;;;;;;;12.47;11.77;;;13.50;7.60;;;;;;5070139;28;20424;-70
2021/03/28 10:42:12;;;;;;;13.33;12.63;;;13.50;6.80;;;;;;5070566;28;20515;-70
2021/03/28 10:44:52;;;;;;;12.00;11.50;;;13.50;6.60;;;;;;5070684;28;20801;-70
2021/03/28 10:47:38;;;;;;;12.90;12.20;;;13.50;6.40;;;;;;5069373;28;20792;-71
2021/03/28 10:50:36;;;;;;;11.10;10.60;;;13.50;7.60;;;;;;5068670;28;20484;-71
2021/03/28 10:53:46;;;;;;;11.93;11.13;;;13.50;7.60;;;;;;5069243;28;20455;-70
2021/03/28 10:56:18;;;;;;;12.33;11.73;;;13.60;6.70;;;;;;5069131;28;20506;-71
2021/03/28 10:58:49;;;;;;;11.83;11.23;;;13.70;7.80;;;;;;5068777;28;20411;-72
2021/03/28 11:01:40;;;;;;;12.63;11.93;;;13.70;7.20;;;;;;5070730;28;20403;-72
2021/03/28 11:04:39;;;;;;;12.50;11.90;;;13.70;6.20;;;;;;5070415;28;20442;-71
2021/03/28 11:07:36;;;;;;;12.77;12.17;;;13.80;6.00;;;;;;5070491;28;20779;-71
2021/03/28 11:10:41;;;;;;;11.23;10.83;;;13.80;7.10;;;;;;5068451;28;20839;-71
2021/03/28 11:13:14;;;;;;;13.03;12.03;;;13.90;6.40;;;;;;5063157;22;20564;-72
2021/03/28 11:15:47;;;;;;;13.90;12.73;;;14.00;8.00;;;;;;5010931;28;20549;-71
2021/03/28 11:18:35;;;;;;;12.53;12.00;;;14.20;6.50;;;;;;5014316;28;20411;-71
2021/03/28 11:21:23;;;;;;;11.70;11.00;;;14.30;6.30;;;;;;5014035;28;20403;-72
2021/03/28 11:24:26;;;;;;;12.83;12.03;;;14.30;6.10;;;;;;5014040;28;20430;-72
2021/03/28 11:27:09;;;;;;;13.10;12.47;;;14.40;5.50;;;;;;5014327;28;20473;-72
2021/03/28 11:29:54;;;;;;;12.17;11.53;;;14.50;6.30;;;;;;5013558;28;20403;-71
2021/03/28 11:32:49;;;;;;;13.50;12.70;;;14.50;5.30;;;;;;5013552;28;20954;-72
2021/03/28 11:35:25;;;;;;;13.67;12.70;;;14.50;5.60;;;;;;5014047;28;20536;-71
2021/03/28 11:38:16;;;;;;;13.10;12.47;;;14.60;5.90;;;;;;5013849;28;20837;-73
2021/03/28 11:40:44;;;;;;;13.00;12.40;;;14.70;4.90;;;;;;5013118;28;20415;-72
2021/03/28 11:43:12;;;;;;;13.20;12.60;;;14.70;5.00;;;;;;5013652;28;20795;-72
2021/03/28 11:45:48;;;;;;;12.57;12.07;;;14.70;3.90;;;;;;5013675;28;20420;-73
2021/03/28 11:48:35;;;;;;;12.70;12.10;;;14.80;4.00;;;;;;5013512;28;20403;-72
2021/03/28 11:51:29;;;;;;;12.33;11.83;;;14.70;4.70;;;;;;5013086;28;20564;-72
2021/03/28 11:54:20;;;;;;;14.40;13.53;;;14.90;5.10;;;;;;5013522;28;20832;-72
2021/03/28 11:57:04;;;;;;;12.60;12.00;;;14.90;4.40;;;;;;5007732;28;20510;-72
2021/03/28 11:59:54;;;;;;;13.00;12.40;;;14.90;4.00;;;;;;5012752;28;20808;-72
2021/03/28 12:02:21;;;;;;;13.67;12.87;;;14.90;5.60;;;;;;5013233;28;20417;-73
2021/03/28 12:05:10;;;;;;;13.07;12.47;;;14.90;4.80;;;;;;5013505;28;20477;-72
2021/03/28 12:07:42;;;;;;;13.33;12.83;;;15.00;4.70;;;;;;4984426;28;20427;-72
2021/03/28 12:10:08;;;;;;;12.97;12.37;;;15.10;5.10;;;;;;5011256;28;20953;-70
2021/03/28 12:12:40;;;;;;;12.77;12.27;;;15.10;5.30;;;;;;5012924;28;20657;-70
2021/03/28 12:15:43;;;;;;;13.67;13.17;;;15.30;4.30;;;;;;5013416;28;20200;-71
2021/03/28 12:18:21;;;;;;;13.20;12.57;;;15.10;4.10;;;;;;5013523;28;20418;-72
2021/03/28 12:21:07;;;;;;;14.13;13.30;;;15.20;4.60;;;;;;5012824;28;20454;-71
2021/03/28 12:23:51;;;;;;;13.43;12.83;;;15.30;5.40;;;;;;5005620;28;20995;-71
2021/03/28 12:26:22;;;;;;;14.03;13.43;;;15.40;4.40;;;;;;5011505;28;20941;-72
2021/03/28 12:28:54;;;;;;;14.07;13.47;;;15.40;3.70;;;;;;5010617;28;20426;-71
2021/03/28 12:31:34;;;;;;;13.93;13.30;;;15.40;4.40;;;;;;5013138;28;20747;-71
2021/03/28 12:34:23;;;;;;;13.00;12.50;;;15.40;4.40;;;;;;5013111;28;20567;-71
2021/03/28 12:37:10;;;;;;;13.47;12.87;;;15.50;4.50;;;;;;5011458;28;20417;-72
2021/03/28 12:39:40;;;;;;;13.93;13.23;;;15.60;4.60;;;;;;5012212;28;20782;-71
2021/03/28 12:42:21;;;;;;;13.30;12.70;;;15.70;4.60;;;;;;5012899;28;20417;-71
2021/03/28 12:45:06;;;;;;;13.17;12.57;;;15.70;3.60;;;;;;5013130;28;20486;-72
2021/03/28 12:47:37;;;;;;;13.80;13.00;;;15.70;4.60;;;;;;5005425;28;20429;-71
2021/03/28 12:50:14;;;;;;;14.33;13.73;;;15.80;3.10;;;;;;5012057;28;20497;-72
2021/03/28 12:53:10;;;;;;;14.43;13.53;;;15.90;3.30;;;;;;5012881;28;20438;-71
2021/03/28 12:55:41;;;;;;;13.63;13.13;;;15.90;2.70;;;;;;5012393;28;20469;-71
2021/03/28 12:58:09;;;;;;;15.27;14.13;;;15.80;3.00;;;;;;5012548;28;20410;-71
2021/03/28 13:00:59;;;;;;;14.60;13.87;;;15.80;2.90;;;;;;5012050;28;20812;-71
2021/03/28 13:03:37;;;;;;;13.10;12.67;;;16.10;3.10;;;;;;5012397;28;20457;-71
2021/03/28 13:06:03;;;;;;;13.60;13.10;;;16.20;2.10;;;;;;5012216;28;20437;-72
2021/03/28 13:08:39;;;;;;;13.77;12.70;;;16.20;1.50;;;;;;5012356;28;20945;-72
2021/03/28 13:11:05;;;;;;;13.30;12.70;;;16.10;2.20;;;;;;5011730;28;20240;-71
2021/03/28 13:13:41;;;;;;;13.87;13.30;;;16.20;1.70;;;;;;5011851;28;20770;-71
2021/03/28 13:16:30;;;;;;;13.97;13.47;;;16.30;1.70;;;;;;5012252;28;20425;-72
2021/03/28 13:18:59;;;;;;;13.50;13.00;;;16.30;1.10;;;;;;5011437;28;20439;-71
2021/03/28 13:21:29;;;;;;;13.33;12.83;;;16.20;1.00;;;;;;5010629;28;20441;-71
2021/03/28 13:24:05;;;;;;;13.63;13.10;;;16.00;1.00;;;;;;5011920;28;20448;-71
2021/03/28 13:26:36;;;;;;;13.23;12.63;;;16.00;1.10;;;;;;5011893;28;20552;-70
2021/03/28 13:29:06;;;;;;;13.37;12.87;;;16.20;1.10;;;;;;5011142;28;20422;-72
2021/03/28 13:31:52;;;;;;;13.90;13.30;;;16.30;1.00;;;;;;5011451;28;20918;-72
2021/03/28 13:34:52;;;;;;;14.67;13.87;;;16.40;1.00;;;;;;5011523;28;20462;-72
2021/03/28 13:37:23;;;;;;;14.07;13.37;;;16.40;1.00;;;;;;5011689;28;20788;-72
2021/03/28 13:40:19;;;;;;;14.10;13.60;;;16.50;1.00;;;;;;5010661;28;20415;-72
2021/03/28 13:42:48;;;;;;;13.80;13.30;;;16.60;1.00;;;;;;5011588;28;20468;-72
2021/03/28 13:45:17;;;;;;;14.70;14.10;;;16.70;1.00;;;;;;5011460;28;20415;-71
2021/03/28 13:47:55;;;;;;;15.00;14.20;;;16.70;1.00;;;;;;5005020;28;20449;-72
2021/03/28 13:50:45;;;;;;;14.10;13.50;;;16.80;1.00;;;;;;5011071;28;20788;-72
2021/03/28 13:53:17;;;;;;;14.30;13.60;;;16.80;1.00;;;;;;5011302;28;20512;-72
2021/03/28 13:55:47;;;;;;;14.17;13.57;;;16.80;1.00;;;;;;5011217;28;20464;-72
2021/03/28 13:58:31;;;;;;;13.80;13.30;;;16.80;1.00;;;;;;5011555;28;20434;-71
2021/03/28 14:01:09;;;;;;;14.63;13.70;;;16.80;1.00;;;;;;5008353;28;20462;-71
2021/03/28 14:03:46;;;;;;;15.57;14.77;;;16.80;1.00;;;;;;5010474;28;20946;-72
2021/03/28 14:06:34;;;;;;;14.73;13.60;;;16.70;1.00;;;;;;5011181;28;20441;-72
2021/03/28 14:09:05;;;;;;;14.37;13.67;;;16.70;1.00;;;;;;5009083;28;20441;-72
2021/03/28 14:11:55;;;;;;;14.70;14.00;;;16.60;1.00;;;;;;5010708;28;20407;-72
2021/03/28 14:14:24;;;;;;;14.80;14.00;;;16.70;1.00;;;;;;5010289;28;20945;-71
2021/03/28 14:16:54;;;;;;;14.67;14.03;;;16.80;1.00;;;;;;5009495;28;20550;-71
2021/03/28 14:19:36;;;;;;;14.27;13.77;;;16.70;1.00;;;;;;5009797;28;20966;-71
2021/03/28 14:22:39;;;;;;;15.13;14.10;;;16.70;1.00;;;;;;5009348;28;20437;-71
2021/03/28 14:25:14;;;;;;;14.80;14.20;;;16.70;1.00;;;;;;5009513;28;20488;-72